createdAt,value
2022-10-26T00:01:16.907Z,66.84
2022-10-26T00:03:45.515Z,66.42
2022-10-26T00:06:24.970Z,66.19
2022-10-26T00:08:52.890Z,66.54
2022-10-26T00:11:20.264Z,66.98
2022-10-26T00:13:48.263Z,66.35
2022-10-26T00:16:27.167Z,66.46
2022-10-26T00:18:54.749Z,66.48
2022-10-26T00:21:21.903Z,66.30
2022-10-26T00:23:48.946Z,66.25
2022-10-26T00:26:16.110Z,66.31
2022-10-26T00:28:43.196Z,66.15
2022-10-26T00:31:15.594Z,65.93
2022-10-26T00:33:42.814Z,65.79
2022-10-26T00:36:10.746Z,65.81
2022-10-26T00:38:38.272Z,65.80
2022-10-26T00:41:05.753Z,65.48
2022-10-26T00:43:34.646Z,65.81
2022-10-26T00:46:05.185Z,65.66
2022-10-26T00:48:36.293Z,66.00
2022-10-26T00:51:08.579Z,65.95
2022-10-26T00:53:36.329Z,65.89
2022-10-26T00:56:03.981Z,65.93
2022-10-26T00:58:32.586Z,67.39
2022-10-26T01:00:59.614Z,67.24
2022-10-26T01:03:28.362Z,67.28
2022-10-26T01:05:57.994Z,66.83
2022-10-26T01:08:26.406Z,67.43
2022-10-26T01:10:53.938Z,66.93
2022-10-26T01:13:21.259Z,67.44
2022-10-26T01:16:03.910Z,66.88
2022-10-26T01:19:13.135Z,66.86
2022-10-26T01:21:55.346Z,66.74
2022-10-26T01:24:43.897Z,67.59
2022-10-26T01:27:20.106Z,67.36
2022-10-26T01:30:25.426Z,67.40
2022-10-26T01:33:22.524Z,68.23
2022-10-26T01:36:19.447Z,68.19
2022-10-26T01:39:02.084Z,67.75
2022-10-26T01:41:44.949Z,67.42
2022-10-26T01:44:19.842Z,67.88
2022-10-26T01:46:50.756Z,67.82
2022-10-26T01:49:22.637Z,67.29
2022-10-26T01:51:50.654Z,66.97
2022-10-26T01:54:17.853Z,67.04
2022-10-26T01:56:50.919Z,66.33
2022-10-26T01:59:42.535Z,66.81
2022-10-26T02:02:12.617Z,67.17
2022-10-26T02:04:45.681Z,67.01
2022-10-26T02:07:25.003Z,66.51
2022-10-26T02:10:30.744Z,66.37
2022-10-26T02:13:24.086Z,66.20
2022-10-26T02:16:07.125Z,66.27
2022-10-26T02:18:52.063Z,66.03
2022-10-26T02:21:28.340Z,66.48
2022-10-26T02:23:58.589Z,66.59
2022-10-26T02:26:28.870Z,66.56
2022-10-26T02:29:01.140Z,67.02
2022-10-26T02:31:30.101Z,67.05
2022-10-26T02:34:02.155Z,67.25
2022-10-26T02:36:33.236Z,67.13
2022-10-26T02:39:03.649Z,67.40
2022-10-26T02:41:31.737Z,67.34
2022-10-26T02:44:11.637Z,67.74
2022-10-26T02:46:39.191Z,67.78
2022-10-26T02:49:06.456Z,67.55
2022-10-26T02:52:05.125Z,67.83
2022-10-26T02:54:54.191Z,67.43
2022-10-26T02:57:29.531Z,67.52
2022-10-26T02:59:57.597Z,67.19
2022-10-26T03:02:25.072Z,67.64
2022-10-26T03:04:53.969Z,67.36
2022-10-26T03:07:23.286Z,67.10
2022-10-26T03:09:50.728Z,67.35
2022-10-26T03:12:18.550Z,67.10
2022-10-26T03:14:45.709Z,66.70
2022-10-26T03:17:12.700Z,67.01
2022-10-26T03:19:39.778Z,66.60
2022-10-26T03:22:06.947Z,67.11
2022-10-26T03:24:33.901Z,67.42
2022-10-26T03:27:02.305Z,66.68
2022-10-26T03:29:29.711Z,66.74
2022-10-26T03:31:56.811Z,66.91
2022-10-26T03:34:23.814Z,67.05
2022-10-26T03:36:50.835Z,66.60
2022-10-26T03:39:17.916Z,66.89
2022-10-26T03:41:45.055Z,66.91
2022-10-26T03:44:12.213Z,66.43
2022-10-26T03:46:39.228Z,66.51
2022-10-26T03:49:06.265Z,66.78
2022-10-26T03:51:33.378Z,67.16
2022-10-26T03:54:00.374Z,66.64
2022-10-26T03:56:27.489Z,66.62
2022-10-26T03:58:54.497Z,67.47
2022-10-26T04:01:21.532Z,66.96
2022-10-26T04:03:48.698Z,67.24
2022-10-26T04:06:15.896Z,67.04
2022-10-26T04:08:42.880Z,66.80
2022-10-26T04:11:09.930Z,66.77
2022-10-26T04:13:37.128Z,66.53
2022-10-26T04:16:04.411Z,66.48
2022-10-26T04:18:31.390Z,66.12
2022-10-26T04:21:02.098Z,66.32
2022-10-26T04:23:29.205Z,65.80
2022-10-26T04:25:56.308Z,66.33
2022-10-26T04:28:23.360Z,65.67
2022-10-26T04:30:50.402Z,65.66
2022-10-26T04:33:17.528Z,65.60
2022-10-26T04:35:45.872Z,65.70
2022-10-26T04:38:12.954Z,65.78
2022-10-26T04:40:40.072Z,66.07
2022-10-26T04:43:07.228Z,66.05
2022-10-26T04:45:34.501Z,65.83
2022-10-26T04:48:06.597Z,66.05
2022-10-26T04:50:34.225Z,65.40
2022-10-26T04:53:05.310Z,65.13
2022-10-26T04:55:32.606Z,65.74
2022-10-26T04:58:01.319Z,65.70
2022-10-26T05:00:31.175Z,65.60
2022-10-26T05:03:02.602Z,65.71
2022-10-26T05:05:31.611Z,65.54
2022-10-26T05:07:59.020Z,65.31
2022-10-26T05:10:27.021Z,65.22
2022-10-26T05:12:55.565Z,64.89
2022-10-26T05:15:23.348Z,64.79
2022-10-26T05:18:03.027Z,64.95
2022-10-26T05:20:31.731Z,64.56
2022-10-26T05:23:03.722Z,64.81
2022-10-26T05:25:37.740Z,64.96
2022-10-26T05:28:13.415Z,64.78
2022-10-26T05:30:42.143Z,64.64
2022-10-26T05:33:10.982Z,65.07
2022-10-26T05:35:38.818Z,65.55
2022-10-26T05:38:15.092Z,65.28
2022-10-26T05:40:49.541Z,64.94
2022-10-26T05:43:16.804Z,64.90
2022-10-26T05:45:43.919Z,64.93
2022-10-26T05:48:10.927Z,64.91
2022-10-26T05:50:37.997Z,64.75
2022-10-26T05:53:05.273Z,64.68
2022-10-26T05:55:32.781Z,64.75
2022-10-26T05:58:00.088Z,63.92
2022-10-26T06:00:29.488Z,63.77
2022-10-26T06:03:27.391Z,64.12
2022-10-26T06:05:57.045Z,64.21
2022-10-26T06:08:26.542Z,64.00
2022-10-26T06:10:54.745Z,64.64
2022-10-26T06:13:22.935Z,64.44
2022-10-26T06:16:08.660Z,64.46
2022-10-26T06:19:02.036Z,64.44
2022-10-26T06:21:46.520Z,63.89
2022-10-26T06:24:48.428Z,63.65
2022-10-26T06:27:37.172Z,63.59
2022-10-26T06:30:12.603Z,63.26
2022-10-26T06:32:41.097Z,62.41
2022-10-26T06:35:26.920Z,61.74
2022-10-26T06:37:56.433Z,61.96
2022-10-26T06:40:24.497Z,62.17
2022-10-26T06:42:51.761Z,61.87
2022-10-26T06:45:19.300Z,60.99
2022-10-26T06:47:51.531Z,61.15
2022-10-26T06:50:54.645Z,61.28
2022-10-26T06:53:44.104Z,59.97
2022-10-26T06:56:13.748Z,60.03
2022-10-26T06:58:42.046Z,60.81
2022-10-26T07:01:12.325Z,60.64
2022-10-26T07:03:39.439Z,60.23
2022-10-26T07:06:06.790Z,60.54
2022-10-26T07:08:34.426Z,59.68
2022-10-26T07:11:01.688Z,59.18
2022-10-26T07:13:28.794Z,59.17
2022-10-26T07:15:55.940Z,59.69
2022-10-26T07:18:22.901Z,58.54
2022-10-26T07:20:49.975Z,57.51
2022-10-26T07:23:17.185Z,57.15
2022-10-26T07:25:44.274Z,57.00
2022-10-26T07:28:11.764Z,55.78
2022-10-26T07:30:40.055Z,54.94
2022-10-26T07:33:13.192Z,53.44
2022-10-26T07:35:40.885Z,53.99
2022-10-26T07:38:08.414Z,53.90
2022-10-26T07:40:37.207Z,54.30
2022-10-26T07:43:04.398Z,54.19
2022-10-26T07:45:33.848Z,53.97
2022-10-26T07:48:01.034Z,52.33
2022-10-26T07:50:28.066Z,51.99
2022-10-26T07:52:54.994Z,52.33
2022-10-26T07:55:22.057Z,51.57
2022-10-26T07:57:53.810Z,52.08
2022-10-26T08:00:22.149Z,51.09
2022-10-26T08:02:49.195Z,51.53
2022-10-26T08:05:16.254Z,50.54
2022-10-26T08:07:44.933Z,51.36
2022-10-26T08:10:13.134Z,50.90
2022-10-26T08:12:40.879Z,50.72
2022-10-26T08:15:08.508Z,50.68
2022-10-26T08:17:35.777Z,50.18
2022-10-26T08:20:02.991Z,50.21
2022-10-26T08:22:31.016Z,50.99
2022-10-26T08:24:58.351Z,49.62
2022-10-26T08:27:25.901Z,49.78
2022-10-26T08:29:53.011Z,47.82
2022-10-26T08:32:20.128Z,48.32
2022-10-26T08:34:47.186Z,46.08
2022-10-26T08:37:14.306Z,45.77
2022-10-26T08:39:41.341Z,46.20
2022-10-26T08:42:19.523Z,45.24
2022-10-26T08:44:48.827Z,45.30
2022-10-26T08:47:25.604Z,45.16
2022-10-26T08:50:04.875Z,45.88
2022-10-26T08:52:38.101Z,46.94
2022-10-26T08:55:13.945Z,46.21
2022-10-26T08:57:42.810Z,47.39
2022-10-26T09:00:15.498Z,47.08
2022-10-26T09:02:42.593Z,48.14
2022-10-26T09:05:18.336Z,48.14
2022-10-26T09:08:13.093Z,48.01
2022-10-26T09:10:58.699Z,47.40
2022-10-26T09:13:44.886Z,46.62
2022-10-26T09:16:28.357Z,45.09
2022-10-26T09:19:04.407Z,46.07
2022-10-26T09:21:51.300Z,47.47
2022-10-26T09:24:39.208Z,45.28
2022-10-26T09:27:20.864Z,45.31
2022-10-26T09:29:49.547Z,44.88
2022-10-26T09:32:20.715Z,44.55
2022-10-26T09:34:58.762Z,44.06
2022-10-26T09:37:32.858Z,43.35
2022-10-26T09:40:13.518Z,43.80
2022-10-26T09:42:45.819Z,44.19
2022-10-26T09:45:31.496Z,44.10
2022-10-26T09:48:12.549Z,43.31
2022-10-26T09:50:43.949Z,43.65
2022-10-26T09:53:11.039Z,43.03
2022-10-26T09:55:44.410Z,43.72
2022-10-26T09:58:20.576Z,44.38
2022-10-26T10:00:52.223Z,45.60
2022-10-26T10:03:24.921Z,45.08
2022-10-26T10:05:52.939Z,44.90
2022-10-26T10:08:25.280Z,45.45
2022-10-26T10:11:02.257Z,45.88
2022-10-26T10:13:37.524Z,45.58
2022-10-26T10:16:12.513Z,45.64
2022-10-26T10:18:41.284Z,46.32
2022-10-26T10:21:10.301Z,46.28
2022-10-26T10:23:52.755Z,45.82
2022-10-26T10:26:19.884Z,46.93
2022-10-26T10:29:01.207Z,46.58
2022-10-26T10:31:33.705Z,46.65
2022-10-26T10:34:00.652Z,46.80
2022-10-26T10:36:30.515Z,47.36
2022-10-26T10:38:57.466Z,47.71
2022-10-26T10:41:31.202Z,47.73
2022-10-26T10:44:21.250Z,47.87
2022-10-26T10:46:48.619Z,47.95
2022-10-26T10:49:27.688Z,48.08
2022-10-26T10:51:56.123Z,47.93
2022-10-26T10:54:39.202Z,48.46
2022-10-26T10:57:43.303Z,48.13
2022-10-26T11:00:12.329Z,48.56
2022-10-26T11:03:16.932Z,49.16
2022-10-26T11:05:52.512Z,48.76
2022-10-26T11:08:39.656Z,48.84
2022-10-26T11:11:12.386Z,48.71
2022-10-26T11:14:14.105Z,49.23
2022-10-26T11:16:46.542Z,48.84
2022-10-26T11:19:19.535Z,50.37
2022-10-26T11:21:52.295Z,50.13
2022-10-26T11:24:36.806Z,50.09
2022-10-26T11:27:19.053Z,50.10
2022-10-26T11:29:58.730Z,50.53
2022-10-26T11:32:25.712Z,50.93
2022-10-26T11:35:03.141Z,50.63
2022-10-26T11:37:37.717Z,51.50
2022-10-26T11:40:15.273Z,51.55
2022-10-26T11:42:49.047Z,50.83
2022-10-26T11:45:23.551Z,51.58
2022-10-26T11:48:01.176Z,50.91
2022-10-26T11:50:34.981Z,51.27
2022-10-26T11:53:21.243Z,51.49
2022-10-26T11:55:52.612Z,51.55
2022-10-26T11:58:24.163Z,51.23
2022-10-26T12:00:57.890Z,50.92
2022-10-26T12:03:32.906Z,51.15
2022-10-26T12:05:59.962Z,51.23
2022-10-26T12:08:51.289Z,51.15
2022-10-26T12:11:36.659Z,51.32
2022-10-26T12:14:09.412Z,52.65
2022-10-26T12:17:14.890Z,52.73
2022-10-26T12:20:06.092Z,52.53
2022-10-26T12:22:37.158Z,52.14
2022-10-26T12:25:16.040Z,52.31
2022-10-26T12:27:42.975Z,52.59
2022-10-26T12:30:37.170Z,52.27
2022-10-26T12:33:30.584Z,52.81
2022-10-26T12:35:57.800Z,52.71
2022-10-26T12:38:25.620Z,52.64
2022-10-26T12:41:10.770Z,52.84
2022-10-26T12:43:41.679Z,53.08
2022-10-26T12:46:14.423Z,53.75
2022-10-26T12:48:46.555Z,53.28
2022-10-26T12:51:20.076Z,53.12
2022-10-26T12:54:05.677Z,53.18
2022-10-26T12:56:55.391Z,53.96
2022-10-26T12:59:48.745Z,54.58
2022-10-26T13:02:37.059Z,54.44
2022-10-26T13:05:14.383Z,53.58
2022-10-26T13:07:42.185Z,53.35
2022-10-26T13:10:12.227Z,53.78
2022-10-26T13:12:48.775Z,53.07
2022-10-26T13:15:33.602Z,53.12
2022-10-26T13:18:18.732Z,54.18
2022-10-26T13:21:03.896Z,54.38
2022-10-26T13:23:34.998Z,54.29
2022-10-26T13:26:20.149Z,53.94
2022-10-26T13:28:55.675Z,54.08
2022-10-26T13:31:28.789Z,53.51
2022-10-26T13:34:09.987Z,53.85
2022-10-26T13:36:43.220Z,54.25
2022-10-26T13:39:35.911Z,54.35
2022-10-26T13:42:03.732Z,54.38
2022-10-26T13:44:48.316Z,55.48
2022-10-26T13:47:51.899Z,56.48
2022-10-26T13:50:41.420Z,56.85
2022-10-26T13:53:16.742Z,55.79
2022-10-26T13:55:53.133Z,56.74
2022-10-26T13:58:40.864Z,56.86
2022-10-26T14:01:11.820Z,57.08
2022-10-26T14:03:41.114Z,57.46
2022-10-26T14:06:26.668Z,57.91
2022-10-26T14:08:58.279Z,56.71
2022-10-26T14:11:36.056Z,57.00
2022-10-26T14:14:04.571Z,57.72
2022-10-26T14:16:33.852Z,57.42
2022-10-26T14:19:03.877Z,58.02
2022-10-26T14:21:30.897Z,58.11
2022-10-26T14:24:03.607Z,57.90
2022-10-26T14:26:39.426Z,58.32
2022-10-26T14:29:18.407Z,58.20
2022-10-26T14:31:45.462Z,57.41
2022-10-26T14:34:13.176Z,57.68
2022-10-26T14:36:59.246Z,57.94
2022-10-26T14:39:33.767Z,59.96
2022-10-26T14:42:06.266Z,58.83
2022-10-26T14:44:37.454Z,59.38
2022-10-26T14:47:04.545Z,59.05
2022-10-26T14:49:31.501Z,58.52
2022-10-26T14:52:00.145Z,58.76
2022-10-26T14:54:28.984Z,59.31
2022-10-26T14:56:57.003Z,58.60
2022-10-26T14:59:31.888Z,58.43
2022-10-26T15:02:00.032Z,58.43
2022-10-26T15:04:28.765Z,58.50
2022-10-26T15:07:18.323Z,58.67
2022-10-26T15:09:49.986Z,58.77
2022-10-26T15:12:36.392Z,58.52
2022-10-26T15:15:15.502Z,59.08
2022-10-26T15:17:49.410Z,58.49
2022-10-26T15:20:20.279Z,59.19
2022-10-26T15:22:54.156Z,59.68
2022-10-26T15:25:24.570Z,59.49
2022-10-26T15:27:52.126Z,58.68
2022-10-26T15:30:23.691Z,58.88
2022-10-26T15:32:52.877Z,59.31
2022-10-26T15:35:20.066Z,59.38
2022-10-26T15:37:48.407Z,58.93
2022-10-26T15:40:15.818Z,59.50
2022-10-26T15:42:45.595Z,58.96
2022-10-26T15:45:28.148Z,58.22
2022-10-26T15:47:57.725Z,58.31
2022-10-26T15:50:27.953Z,58.55
2022-10-26T15:53:03.046Z,59.61
2022-10-26T15:55:30.781Z,58.97
2022-10-26T15:57:57.935Z,58.94
2022-10-26T16:00:24.987Z,59.05
2022-10-26T16:02:52.821Z,59.33
2022-10-26T16:05:19.807Z,59.40
2022-10-26T16:07:48.728Z,59.34
2022-10-26T16:10:23.624Z,59.51
2022-10-26T16:12:51.625Z,60.30
2022-10-26T16:15:24.537Z,60.59
2022-10-26T16:17:52.390Z,60.13
2022-10-26T16:20:27.395Z,60.49
2022-10-26T16:22:55.102Z,59.75
2022-10-26T16:25:26.046Z,60.17
2022-10-26T16:27:55.200Z,60.19
2022-10-26T16:30:25.811Z,60.06
2022-10-26T16:32:56.071Z,60.35
2022-10-26T16:35:23.395Z,59.48
2022-10-26T16:37:50.589Z,59.57
2022-10-26T16:40:17.572Z,59.87
2022-10-26T16:42:44.803Z,60.04
2022-10-26T16:45:12.472Z,60.13
2022-10-26T16:47:40.298Z,60.40
2022-10-26T16:50:12.216Z,60.65
2022-10-26T16:52:39.796Z,60.41
2022-10-26T16:55:09.316Z,59.73
2022-10-26T16:57:37.472Z,59.89
2022-10-26T17:00:06.642Z,60.41
2022-10-26T17:02:33.878Z,60.32
2022-10-26T17:05:04.235Z,60.53
2022-10-26T17:07:34.484Z,61.04
2022-10-26T17:10:01.794Z,59.90
2022-10-26T17:12:30.738Z,61.34
2022-10-26T17:14:59.074Z,61.29
2022-10-26T17:17:26.679Z,60.12
2022-10-26T17:19:54.351Z,60.49
2022-10-26T17:22:21.310Z,60.12
2022-10-26T17:24:48.306Z,59.98
2022-10-26T17:27:17.063Z,60.20
2022-10-26T17:29:44.055Z,60.65
2022-10-26T17:32:11.030Z,60.84
2022-10-26T17:34:38.042Z,60.83
2022-10-26T17:37:05.136Z,60.33
2022-10-26T17:39:32.092Z,60.93
2022-10-26T17:41:59.114Z,60.90
2022-10-26T17:44:26.193Z,61.23
2022-10-26T17:46:53.182Z,61.44
2022-10-26T17:49:23.564Z,62.09
2022-10-26T17:51:53.519Z,61.24
2022-10-26T17:54:20.870Z,61.30
2022-10-26T17:56:48.006Z,60.58
2022-10-26T17:59:14.978Z,60.34
2022-10-26T18:01:43.570Z,60.51
2022-10-26T18:04:10.954Z,61.09
2022-10-26T18:06:38.113Z,60.64
2022-10-26T18:09:05.061Z,60.84
2022-10-26T18:14:04.087Z,60.86
2022-10-26T18:16:31.292Z,60.44
2022-10-26T18:19:04.488Z,60.43
2022-10-26T18:21:34.037Z,61.11
2022-10-26T18:24:01.006Z,61.56
2022-10-26T18:26:29.328Z,60.50
2022-10-26T18:29:02.502Z,61.21
2022-10-26T18:31:32.029Z,60.81
2022-10-26T18:34:01.593Z,60.52
2022-10-26T18:36:29.760Z,60.46
2022-10-26T18:38:57.229Z,60.69
2022-10-26T18:41:25.668Z,60.33
2022-10-26T18:43:55.157Z,60.89
2022-10-26T18:46:28.466Z,60.02
2022-10-26T18:48:56.588Z,60.68
2022-10-26T18:51:28.804Z,60.31
2022-10-26T18:53:56.644Z,60.94
2022-10-26T18:56:25.093Z,60.48
2022-10-26T18:58:54.196Z,59.67
2022-10-26T19:01:26.688Z,60.13
2022-10-26T19:03:55.766Z,60.21
2022-10-26T19:06:28.704Z,60.15
2022-10-26T19:08:56.708Z,60.41
2022-10-26T19:11:27.030Z,61.41
2022-10-26T19:13:54.279Z,60.96
2022-10-26T19:16:44.484Z,59.93
2022-10-26T19:19:12.923Z,60.24
2022-10-26T19:21:39.930Z,60.36
2022-10-26T19:24:12.526Z,60.01
2022-10-26T19:26:43.145Z,60.38
2022-10-26T19:29:15.582Z,60.69
2022-10-26T19:31:45.022Z,60.92
2022-10-26T19:34:14.028Z,60.62
2022-10-26T19:36:45.092Z,61.21
2022-10-26T19:39:17.203Z,60.79
2022-10-26T19:41:46.447Z,60.67
2022-10-26T19:44:15.075Z,60.74
2022-10-26T19:46:44.665Z,60.19
2022-10-26T19:49:13.269Z,59.90
2022-10-26T19:51:40.811Z,60.31
2022-10-26T19:54:07.941Z,59.76
2022-10-26T19:56:36.788Z,59.68
2022-10-26T19:59:05.424Z,59.98
2022-10-26T20:01:34.252Z,59.50
2022-10-26T20:04:02.881Z,59.81
2022-10-26T20:06:31.161Z,59.03
2022-10-26T20:08:59.178Z,58.64
2022-10-26T20:11:26.426Z,59.08
2022-10-26T20:13:55.681Z,59.59
2022-10-26T20:16:22.912Z,59.07
2022-10-26T20:18:49.965Z,60.07
2022-10-26T20:21:17.976Z,60.45
2022-10-26T20:23:45.432Z,59.21
2022-10-26T20:26:19.394Z,59.49
2022-10-26T20:28:51.120Z,59.36
2022-10-26T20:31:20.016Z,59.87
2022-10-26T20:33:52.516Z,59.95
2022-10-26T20:36:20.264Z,59.79
2022-10-26T20:38:47.826Z,59.37
2022-10-26T20:41:15.459Z,59.93
2022-10-26T20:43:42.952Z,59.99
2022-10-26T20:46:11.706Z,59.70
2022-10-26T20:48:39.147Z,59.55
2022-10-26T20:51:26.697Z,59.46
2022-10-26T20:54:05.533Z,59.09
2022-10-26T20:56:34.671Z,59.40
2022-10-26T20:59:04.309Z,59.08
2022-10-26T21:01:35.460Z,59.15
2022-10-26T21:04:04.244Z,59.21
2022-10-26T21:06:40.312Z,59.17
2022-10-26T21:09:09.207Z,59.19
2022-10-26T21:11:36.611Z,58.57
2022-10-26T21:14:05.547Z,59.53
2022-10-26T21:16:33.115Z,59.11
2022-10-26T21:19:00.629Z,59.38
2022-10-26T21:21:28.016Z,58.85
2022-10-26T21:23:58.065Z,58.86
2022-10-26T21:26:25.233Z,58.85
2022-10-26T21:28:52.431Z,58.95
2022-10-26T21:31:21.458Z,59.29
2022-10-26T21:33:49.070Z,59.03
2022-10-26T21:36:17.035Z,59.07
2022-10-26T21:38:46.113Z,59.18
2022-10-26T21:41:18.232Z,59.12
2022-10-26T21:43:48.092Z,58.84
2022-10-26T21:46:17.155Z,58.77
2022-10-26T21:48:45.529Z,59.06
2022-10-26T21:51:19.276Z,58.99
2022-10-26T21:53:48.238Z,58.85
2022-10-26T21:56:21.349Z,59.27
2022-10-26T21:58:49.082Z,59.33
2022-10-26T22:01:19.147Z,58.47
2022-10-26T22:03:47.205Z,58.53
2022-10-26T22:08:50.057Z,58.74
2022-10-26T22:11:23.389Z,58.76
2022-10-26T22:13:51.891Z,58.85
2022-10-26T22:16:25.392Z,58.77
2022-10-26T22:18:54.976Z,59.03
2022-10-26T22:21:26.241Z,58.55
2022-10-26T22:23:53.826Z,59.02
2022-10-26T22:26:25.011Z,58.69
2022-10-26T22:28:58.027Z,58.62
2022-10-26T22:31:33.270Z,58.12
2022-10-26T22:34:07.925Z,58.08
2022-10-26T22:36:36.199Z,58.17
2022-10-26T22:39:04.328Z,58.14
2022-10-26T22:41:31.843Z,58.65
2022-10-26T22:43:59.282Z,58.75
2022-10-26T22:46:28.320Z,58.37
2022-10-26T22:48:57.386Z,58.13
2022-10-26T22:51:26.115Z,58.33
2022-10-26T22:53:55.518Z,59.08
2022-10-26T22:56:24.045Z,58.27
2022-10-26T22:58:53.612Z,58.72
2022-10-26T23:01:26.997Z,58.47
2022-10-26T23:03:57.753Z,58.45
2022-10-26T23:06:27.362Z,58.38
2022-10-26T23:08:54.783Z,58.62
2022-10-26T23:11:23.448Z,58.19
2022-10-26T23:13:55.252Z,58.18
2022-10-26T23:16:22.578Z,58.84
2022-10-26T23:18:50.058Z,58.50
2022-10-26T23:21:17.995Z,58.29
2022-10-26T23:23:45.427Z,58.56
2022-10-26T23:26:17.844Z,58.29
2022-10-26T23:28:45.839Z,58.67
2022-10-26T23:31:25.904Z,58.42
2022-10-26T23:33:55.290Z,58.64
2022-10-26T23:36:23.169Z,57.94
2022-10-26T23:38:50.497Z,58.72
2022-10-26T23:41:17.859Z,57.76
2022-10-26T23:43:45.057Z,57.71
2022-10-26T23:46:12.302Z,58.44
2022-10-26T23:48:39.440Z,57.96
2022-10-26T23:51:06.642Z,58.49
2022-10-26T23:53:34.017Z,58.39
2022-10-26T23:56:02.086Z,58.71
2022-10-26T23:58:29.304Z,58.28
